createdAt,value
2023-05-05T00:01:23.253Z,3.45
2023-05-05T00:06:27.904Z,3.45
2023-05-05T00:11:32.193Z,3.25
2023-05-05T00:16:35.140Z,3.30
2023-05-05T00:21:38.060Z,3.58
2023-05-05T00:26:42.329Z,3.42
2023-05-05T00:31:45.223Z,3.17
2023-05-05T00:36:48.418Z,3.97
2023-05-05T00:41:52.691Z,3.72
2023-05-05T00:46:55.601Z,4.32
2023-05-05T00:51:59.060Z,3.30
2023-05-05T00:57:03.628Z,3.25
2023-05-05T01:02:06.502Z,3.22
2023-05-05T01:07:14.836Z,3.05
2023-05-05T01:12:34.389Z,4.95
2023-05-05T01:17:43.550Z,3.63
2023-05-05T01:22:49.439Z,4.07
2023-05-05T01:28:08.342Z,3.67
2023-05-05T01:33:16.782Z,3.47
2023-05-05T01:38:23.999Z,3.53
2023-05-05T01:43:30.524Z,3.60
2023-05-05T01:48:35.103Z,3.75
2023-05-05T01:53:39.612Z,3.67
2023-05-05T01:58:45.207Z,3.35
2023-05-05T02:03:52.387Z,3.35
2023-05-05T02:08:58.345Z,3.40
2023-05-05T02:14:02.304Z,3.40
2023-05-05T02:19:06.948Z,3.30
2023-05-05T02:24:10.337Z,3.55
2023-05-05T02:29:17.805Z,3.20
2023-05-05T02:34:26.601Z,3.83
2023-05-05T02:39:34.005Z,3.00
2023-05-05T02:44:37.814Z,3.88
2023-05-05T02:49:42.063Z,3.50
2023-05-05T02:54:45.042Z,3.08
2023-05-05T02:59:54.207Z,3.63
2023-05-05T03:05:05.308Z,3.03
2023-05-05T03:10:11.137Z,3.53
2023-05-05T03:15:14.683Z,2.63
2023-05-05T03:20:19.322Z,3.65
2023-05-05T03:25:22.250Z,3.15
2023-05-05T03:30:25.173Z,3.08
2023-05-05T03:35:29.645Z,4.07
2023-05-05T03:40:43.767Z,3.17
2023-05-05T03:45:47.632Z,3.20
2023-05-05T03:50:51.888Z,3.20
2023-05-05T03:55:54.822Z,3.40
2023-05-05T04:00:58.071Z,4.10
2023-05-05T04:06:02.527Z,3.38
2023-05-05T04:11:05.626Z,3.45
2023-05-05T04:16:08.970Z,3.28
2023-05-05T04:21:13.298Z,3.60
2023-05-05T04:26:16.325Z,3.72
2023-05-05T04:31:19.368Z,3.55
2023-05-05T04:36:23.654Z,3.30
2023-05-05T04:41:27.703Z,3.42
2023-05-05T04:46:34.760Z,3.50
2023-05-05T04:51:42.275Z,3.00
2023-05-05T04:56:45.233Z,3.22
2023-05-05T05:01:48.199Z,3.30
2023-05-05T05:06:52.709Z,3.63
2023-05-05T05:11:56.303Z,3.50
2023-05-05T05:16:59.176Z,3.53
2023-05-05T05:22:03.537Z,2.92
2023-05-05T05:27:09.797Z,3.30
2023-05-05T05:32:13.177Z,2.78
2023-05-05T05:37:17.473Z,2.83
2023-05-05T05:42:20.381Z,2.88
2023-05-05T05:47:23.844Z,3.20
2023-05-05T05:52:28.143Z,3.50
2023-05-05T05:57:31.110Z,3.40
2023-05-05T06:02:34.119Z,3.05
2023-05-05T06:07:38.495Z,3.10
2023-05-05T06:12:41.473Z,3.10
2023-05-05T06:17:44.434Z,3.40
2023-05-05T06:22:48.703Z,3.45
2023-05-05T06:27:51.806Z,3.20
2023-05-05T06:32:54.943Z,3.30
2023-05-05T06:37:59.237Z,2.85
2023-05-05T06:43:02.199Z,3.05
2023-05-05T06:48:05.373Z,3.47
2023-05-05T06:53:09.694Z,7.18
2023-05-05T06:58:13.144Z,5.25
2023-05-05T07:03:16.144Z,6.45
2023-05-05T07:08:20.491Z,4.93
2023-05-05T07:13:23.441Z,8.95
2023-05-05T07:18:26.453Z,4.65
2023-05-05T07:23:30.713Z,4.50
2023-05-05T07:28:33.593Z,6.60
2023-05-05T07:33:36.545Z,10.55
2023-05-05T07:38:40.881Z,8.23
2023-05-05T07:43:44.694Z,7.90
2023-05-05T07:48:47.688Z,7.15
2023-05-05T07:53:51.977Z,6.28
2023-05-05T07:58:54.921Z,5.15
2023-05-05T08:03:57.836Z,5.85
2023-05-05T08:09:02.609Z,7.35
2023-05-05T08:14:05.523Z,6.82
2023-05-05T08:19:17.848Z,5.13
2023-05-05T08:24:32.309Z,8.38
2023-05-05T08:29:35.208Z,5.32
2023-05-05T08:34:38.085Z,4.80
2023-05-05T08:39:42.367Z,6.57
2023-05-05T08:44:45.253Z,4.80
2023-05-05T08:49:48.709Z,12.90
2023-05-05T08:55:03.584Z,14.25
2023-05-05T09:00:09.825Z,6.53
2023-05-05T09:05:13.157Z,7.35
2023-05-05T09:10:17.658Z,5.50
2023-05-05T09:15:20.554Z,6.00
2023-05-05T09:20:24.259Z,46.30
2023-05-05T09:25:28.660Z,16.23
2023-05-05T09:30:41.160Z,19.40
2023-05-05T09:35:51.453Z,12.00
2023-05-05T09:40:55.081Z,14.48
2023-05-05T09:46:08.549Z,17.23
2023-05-05T09:51:11.495Z,17.13
2023-05-05T09:56:14.342Z,11.73
2023-05-05T10:01:24.519Z,10.55
2023-05-05T10:06:41.170Z,10.15
2023-05-05T10:11:46.111Z,10.77
2023-05-05T10:16:52.664Z,10.30
2023-05-05T10:22:03.817Z,16.05
2023-05-05T10:27:13.150Z,10.15
2023-05-05T10:32:51.184Z,11.20
2023-05-05T10:37:46.405Z,10.05
2023-05-05T10:42:50.012Z,10.52
2023-05-05T10:47:57.124Z,11.98
2023-05-05T10:53:12.174Z,12.57
2023-05-05T10:58:38.543Z,11.85
2023-05-05T11:03:49.529Z,10.48
2023-05-05T11:08:52.474Z,13.27
2023-05-05T11:14:22.304Z,10.32
2023-05-05T11:19:48.589Z,10.23
2023-05-05T11:24:51.499Z,9.25
2023-05-05T11:30:09.276Z,7.10
2023-05-05T11:35:14.272Z,7.70
2023-05-05T11:40:24.790Z,6.47
2023-05-05T11:45:27.701Z,5.95
2023-05-05T11:50:33.992Z,7.13
2023-05-05T11:55:36.818Z,6.47
2023-05-05T12:00:39.841Z,6.25
2023-05-05T12:05:44.043Z,6.63
2023-05-05T12:10:46.920Z,8.15
2023-05-05T12:15:50.144Z,6.32
2023-05-05T12:20:54.354Z,6.50
2023-05-05T12:25:57.408Z,6.13
2023-05-05T12:31:00.444Z,8.15
2023-05-05T12:36:05.098Z,6.03
2023-05-05T12:41:08.823Z,6.45
2023-05-05T12:46:13.368Z,5.57
2023-05-05T12:51:19.870Z,5.65
2023-05-05T12:56:34.177Z,6.90
2023-05-05T13:01:37.987Z,5.82
2023-05-05T13:06:44.023Z,5.18
2023-05-05T13:11:46.844Z,5.13
2023-05-05T13:16:49.923Z,6.00
2023-05-05T13:21:54.433Z,7.68
2023-05-05T13:26:57.586Z,4.97
2023-05-05T13:32:00.825Z,4.57
2023-05-05T13:37:05.010Z,5.13
2023-05-05T13:42:08.011Z,4.43
2023-05-05T13:47:10.879Z,5.35
2023-05-05T13:52:15.180Z,4.57
2023-05-05T13:57:18.109Z,4.45
2023-05-05T14:02:20.917Z,4.70
2023-05-05T14:07:25.115Z,5.32
2023-05-05T14:12:28.257Z,4.57
2023-05-05T14:17:31.102Z,4.80
2023-05-05T14:22:35.289Z,3.95
2023-05-05T14:27:38.150Z,6.10
2023-05-05T14:32:41.021Z,3.55
2023-05-05T14:37:45.218Z,3.92
2023-05-05T14:42:49.129Z,4.30
2023-05-05T14:47:52.052Z,4.70
2023-05-05T14:52:56.296Z,4.32
2023-05-05T14:57:59.147Z,4.50
2023-05-05T15:03:02.075Z,6.38
2023-05-05T15:08:06.791Z,4.68
2023-05-05T15:13:09.859Z,3.67
2023-05-05T15:18:13.053Z,4.70
2023-05-05T15:23:17.265Z,4.15
2023-05-05T15:28:20.125Z,4.22
2023-05-05T15:33:22.933Z,2.90
2023-05-05T15:38:29.009Z,4.30
2023-05-05T15:43:31.843Z,3.70
2023-05-05T15:48:35.632Z,4.03
2023-05-05T15:53:39.816Z,3.55
2023-05-05T15:58:42.656Z,4.22
2023-05-05T16:03:45.604Z,4.10
2023-05-05T16:08:51.729Z,4.60
2023-05-05T16:13:54.804Z,3.83
2023-05-05T16:18:57.708Z,3.97
2023-05-05T16:24:01.869Z,4.72
2023-05-05T16:29:04.729Z,3.47
2023-05-05T16:34:07.661Z,3.78
2023-05-05T16:39:11.930Z,3.85
2023-05-05T16:44:15.704Z,4.25
2023-05-05T16:49:18.541Z,3.63
2023-05-05T16:54:22.760Z,3.75
2023-05-05T16:59:25.771Z,3.13
2023-05-05T17:04:28.653Z,3.60
2023-05-05T17:09:32.816Z,3.13
2023-05-05T17:14:35.650Z,5.38
2023-05-05T17:19:38.492Z,3.25
2023-05-05T17:24:43.048Z,3.08
2023-05-05T17:29:45.901Z,3.30
2023-05-05T17:34:49.145Z,2.90
2023-05-05T17:39:53.303Z,3.30
2023-05-05T17:44:56.133Z,3.35
2023-05-05T17:49:59.424Z,4.72
2023-05-05T17:55:03.594Z,3.08
2023-05-05T18:00:07.710Z,2.97
2023-05-05T18:05:11.351Z,3.20
2023-05-05T18:10:16.630Z,3.08
2023-05-05T18:15:19.497Z,2.97
2023-05-05T18:20:22.334Z,2.80
2023-05-05T18:25:26.702Z,3.05
2023-05-05T18:30:29.617Z,2.30
2023-05-05T18:35:32.886Z,3.80
2023-05-05T18:40:37.054Z,2.42
2023-05-05T18:45:40.010Z,2.92
2023-05-05T18:50:42.930Z,2.67
2023-05-05T18:55:47.743Z,2.65
2023-05-05T19:00:51.046Z,2.83
2023-05-05T19:05:54.159Z,3.88
2023-05-05T19:10:58.380Z,2.42
2023-05-05T19:16:01.347Z,2.75
2023-05-05T19:21:04.363Z,2.38
2023-05-05T19:26:08.549Z,2.58
2023-05-05T19:31:11.388Z,2.40
2023-05-05T19:36:14.193Z,2.50
2023-05-05T19:41:18.417Z,2.35
2023-05-05T19:46:21.369Z,2.10
2023-05-05T19:51:24.236Z,2.55
2023-05-05T19:56:28.477Z,2.17
2023-05-05T20:01:31.459Z,3.15
2023-05-05T20:06:35.753Z,3.05
2023-05-05T20:11:39.954Z,1.83
2023-05-05T20:16:42.764Z,2.53
2023-05-05T20:21:45.745Z,2.47
2023-05-05T20:26:50.325Z,2.10
2023-05-05T20:31:53.163Z,2.75
2023-05-05T20:36:56.561Z,2.53
2023-05-05T20:42:01.198Z,3.00
2023-05-05T20:47:04.044Z,2.33
2023-05-05T20:52:06.913Z,2.58
2023-05-05T20:57:11.477Z,1.83
2023-05-05T21:02:14.384Z,1.55
2023-05-05T21:07:17.212Z,1.83
2023-05-05T21:12:21.364Z,1.85
2023-05-05T21:17:24.227Z,3.00
2023-05-05T21:22:27.066Z,3.03
2023-05-05T21:27:31.854Z,2.92
2023-05-05T21:32:34.862Z,3.13
2023-05-05T21:37:38.419Z,3.80
2023-05-05T21:42:43.350Z,2.05
2023-05-05T21:47:46.300Z,1.70
2023-05-05T21:52:49.150Z,1.70
2023-05-05T21:57:53.313Z,1.77
2023-05-05T22:02:56.247Z,1.83
2023-05-05T22:07:59.132Z,1.98
2023-05-05T22:13:03.371Z,2.08
2023-05-05T22:18:06.596Z,4.35
2023-05-05T22:23:09.509Z,1.73
2023-05-05T22:28:13.838Z,1.80
2023-05-05T22:33:17.004Z,2.42
2023-05-05T22:38:19.831Z,2.25
2023-05-05T22:43:24.019Z,2.30
2023-05-05T22:48:26.859Z,1.67
2023-05-05T22:53:29.709Z,1.70
2023-05-05T22:58:33.869Z,2.00
2023-05-05T23:03:36.708Z,1.63
2023-05-05T23:08:39.575Z,1.80
2023-05-05T23:13:43.763Z,1.98
2023-05-05T23:18:46.604Z,1.70
2023-05-05T23:23:49.488Z,1.50
2023-05-05T23:28:53.679Z,1.90
2023-05-05T23:33:56.513Z,2.33
2023-05-05T23:38:59.351Z,2.47
2023-05-05T23:44:03.554Z,2.97
2023-05-05T23:49:06.463Z,1.70
2023-05-05T23:54:09.339Z,2.42
2023-05-05T23:59:13.476Z,1.40
